Time;durP1;ratioP1;P1;durP2;ratioP2;P2;SDS_P1;SDS_P2;PMS_P1;PMS_P2;Temp;Humidity;BMP_temperature;BMP_pressure;BME280_temperature;BME280_humidity;BME280_pressure;Samples;Min_cycle;Max_cycle;Signal;HPM_P1;HPM_P2
2022/06/20 00:01:26;;;;;;;22.55;9.23;;;;;;;12.79;85.45;101256.78;5070672;28;20082;-50
2022/06/20 00:03:54;;;;;;;21.27;9.63;;;;;;;12.78;86.18;101258.75;5071199;28;20024;-53
2022/06/20 00:06:22;;;;;;;18.23;8.93;;;;;;;12.66;86.15;101236.25;5074001;28;20032;-52
2022/06/20 00:08:51;;;;;;;23.45;9.45;;;;;;;12.61;85.83;101242.72;5074182;28;20028;-50
2022/06/20 00:11:22;;;;;;;20.88;9.20;;;;;;;12.58;86.19;101248.88;5074359;28;20029;-53
2022/06/20 00:13:52;;;;;;;18.58;8.93;;;;;;;12.59;85.76;101247.75;5074559;28;20474;-53
2022/06/20 00:16:19;;;;;;;20.00;9.27;;;;;;;12.70;84.85;101258.66;5074371;28;20029;-52
2022/06/20 00:18:46;;;;;;;19.75;8.60;;;;;;;12.66;85.35;101243.78;5073985;28;20050;-53
2022/06/20 00:21:14;;;;;;;18.60;8.80;;;;;;;12.68;85.54;101247.03;5073532;28;20487;-49
2022/06/20 00:23:40;;;;;;;19.52;9.13;;;;;;;12.60;84.19;101249.41;5073722;28;20020;-51
2022/06/20 00:26:06;;;;;;;18.35;8.55;;;;;;;12.58;84.68;101243.34;5074104;28;20128;-50
2022/06/20 00:28:31;;;;;;;18.00;8.32;;;;;;;12.54;84.18;101255.38;5074064;28;20445;-51
2022/06/20 00:30:57;;;;;;;18.38;8.63;;;;;;;12.51;84.04;101265.16;5074640;28;20055;-50
2022/06/20 00:33:22;;;;;;;19.95;9.00;;;;;;;12.50;83.47;101288.47;5074384;28;20032;-51
2022/06/20 00:35:48;;;;;;;20.60;9.65;;;;;;;12.47;83.88;101303.78;5074272;28;20070;-52
2022/06/20 00:38:21;;;;;;;23.35;8.95;;;;;;;12.47;83.54;101317.66;5074042;28;20028;-50
2022/06/20 00:40:51;;;;;;;19.48;8.60;;;;;;;12.47;84.74;101312.13;5073269;28;20081;-52
2022/06/20 00:43:24;;;;;;;17.10;8.98;;;;;;;12.56;84.32;101319.72;5074135;28;20055;-53
2022/06/20 00:45:53;;;;;;;19.00;8.73;;;;;;;12.49;83.76;101336.78;5074321;28;20051;-53
2022/06/20 00:48:25;;;;;;;17.70;8.55;;;;;;;12.55;83.46;101359.69;5073753;28;20487;-52
2022/06/20 00:50:55;;;;;;;18.33;8.45;;;;;;;12.66;83.07;101386.13;5074056;28;20505;-53
2022/06/20 00:53:34;;;;;;;17.67;9.02;;;;;;;12.61;83.98;101383.47;5073770;28;20399;-52
2022/06/20 00:56:05;;;;;;;17.73;9.02;;;;;;;12.66;84.15;101393.66;5074107;28;20475;-53
2022/06/20 00:58:55;;;;;;;17.15;8.45;;;;;;;12.97;83.27;101445.78;5073740;28;20237;-52
2022/06/20 01:01:27;;;;;;;18.17;9.00;;;;;;;13.02;83.54;101467.94;5072871;28;20028;-52
2022/06/20 01:03:58;;;;;;;19.25;8.77;;;;;;;13.08;83.67;101473.06;5074131;28;20099;-52
2022/06/20 01:06:30;;;;;;;18.42;8.60;;;;;;;13.05;83.35;101459.81;5073727;28;20033;-49
2022/06/20 01:09:07;;;;;;;17.10;9.20;;;;;;;13.14;82.21;101459.06;5073324;28;20027;-53
2022/06/20 01:11:51;;;;;;;20.25;8.82;;;;;;;13.23;81.83;101452.47;5073872;28;20471;-52
2022/06/20 01:14:22;;;;;;;17.08;8.98;;;;;;;13.23;81.70;101423.88;5073368;28;20048;-51
2022/06/20 01:16:48;;;;;;;21.08;8.95;;;;;;;13.19;82.47;101412.56;5074047;28;20054;-49
2022/06/20 01:19:46;;;;;;;20.70;8.95;;;;;;;13.16;82.89;101413.19;5073319;28;20032;-50
2022/06/20 01:22:36;;;;;;;18.50;10.02;;;;;;;13.15;82.90;101397.66;5064850;28;20048;-52
2022/06/20 01:25:18;;;;;;;18.95;9.23;;;;;;;12.92;83.56;101386.47;5073023;28;20027;-52
2022/06/20 01:27:47;;;;;;;23.48;9.38;;;;;;;12.85;83.23;101388.00;5073381;28;20021;-51
2022/06/20 01:30:12;;;;;;;20.45;9.18;;;;;;;12.86;83.73;101403.53;5072830;28;20332;-50
2022/06/20 01:32:38;;;;;;;21.75;9.30;;;;;;;12.81;84.29;101382.25;5073385;28;20027;-52
2022/06/20 01:35:07;;;;;;;21.33;9.77;;;;;;;12.69;85.82;101371.66;5072883;28;20029;-48
2022/06/20 01:37:34;;;;;;;20.75;10.10;;;;;;;12.57;86.29;101357.44;5073178;28;20020;-52
2022/06/20 01:40:05;;;;;;;18.92;9.75;;;;;;;12.53;86.12;101353.63;5072727;28;20064;-53
2022/06/20 01:42:32;;;;;;;21.05;9.98;;;;;;;12.43;86.57;101355.47;5072381;28;20104;-51
2022/06/20 01:45:57;;;;;;;19.33;9.90;;;;;;;12.46;87.08;101360.41;5072780;28;20063;-53
2022/06/20 01:47:53;;;;;;;22.25;9.90;;;;;;;12.43;87.24;101360.22;5072594;28;20032;-51
2022/06/20 01:50:18;;;;;;;22.67;10.02;;;;;;;12.36;87.46;101355.06;5073224;28;20095;-53
2022/06/20 01:52:45;;;;;;;19.25;9.90;;;;;;;12.31;88.09;101342.09;5073152;28;20490;-52
2022/06/20 01:55:16;;;;;;;18.58;9.35;;;;;;;12.26;88.42;101330.28;5072852;28;20078;-53
2022/06/20 01:57:45;;;;;;;21.45;10.52;;;;;;;12.18;88.39;101320.72;5072253;28;20506;-50
2022/06/20 02:00:18;;;;;;;19.88;10.60;;;;;;;12.13;88.31;101313.31;5072516;28;20028;-52
2022/06/20 02:02:50;;;;;;;19.80;10.00;;;;;;;12.18;88.66;101323.50;5072654;28;20025;-48
2022/06/20 02:05:20;;;;;;;20.20;10.35;;;;;;;12.09;88.84;101300.38;5072632;28;20029;-50
2022/06/20 02:07:46;;;;;;;20.80;10.05;;;;;;;12.11;89.01;101303.63;5073253;28;20037;-51
2022/06/20 02:10:17;;;;;;;20.52;10.20;;;;;;;12.18;88.66;101312.41;5072142;28;20030;-51
2022/06/20 02:12:44;;;;;;;19.40;10.13;;;;;;;12.23;89.06;101317.84;5071945;28;20165;-49
2022/06/20 02:15:16;;;;;;;20.38;10.10;;;;;;;12.35;88.31;101317.34;5071898;28;20544;-51
2022/06/20 02:17:43;;;;;;;17.90;9.50;;;;;;;12.32;87.89;101310.47;5072108;28;20039;-51
2022/06/20 02:20:13;;;;;;;19.65;9.95;;;;;;;12.22;87.78;101301.53;5070515;28;20120;-52
2022/06/20 02:22:40;;;;;;;19.67;9.90;;;;;;;12.24;88.00;101293.69;5071707;28;20029;-49
2022/06/20 02:25:10;;;;;;;18.65;9.90;;;;;;;12.19;87.69;101289.06;5081002;22;20053;-53
2022/06/20 02:27:44;;;;;;;24.20;10.52;;;;;;;12.18;87.94;101276.34;5052024;28;20029;-53
2022/06/20 02:30:11;;;;;;;21.85;10.52;;;;;;;12.13;87.30;101270.88;5052663;28;20511;-53
2022/06/20 02:32:40;;;;;;;20.08;9.93;;;;;;;12.05;87.62;101271.59;5052804;28;20029;-54
2022/06/20 02:35:10;;;;;;;19.67;10.00;;;;;;;12.00;87.99;101267.78;5052888;28;20040;-53
2022/06/20 02:37:36;;;;;;;18.33;9.45;;;;;;;11.98;87.00;101253.41;5053059;28;20036;-53
2022/06/20 02:40:06;;;;;;;18.98;9.65;;;;;;;11.98;87.21;101264.50;5052894;28;20028;-53
2022/06/20 02:42:43;;;;;;;20.80;9.13;;;;;;;12.00;86.90;101269.75;5052399;28;20029;-53
2022/06/20 02:45:11;;;;;;;16.15;9.43;;;;;;;12.02;86.66;101271.06;5052429;28;20020;-50
2022/06/20 02:47:44;;;;;;;19.20;9.75;;;;;;;12.01;87.12;101269.44;5052141;28;20029;-52
2022/06/20 02:50:12;;;;;;;19.88;9.60;;;;;;;11.94;86.48;101255.13;5052285;28;20078;-51
2022/06/20 02:52:45;;;;;;;20.85;9.88;;;;;;;12.06;87.71;101262.16;5052859;28;20048;-50
2022/06/20 02:55:13;;;;;;;18.70;9.73;;;;;;;12.05;87.65;101250.22;5052403;28;20024;-50
2022/06/20 02:57:42;;;;;;;20.52;9.90;;;;;;;12.02;87.50;101239.75;5052223;28;20082;-50
2022/06/20 03:00:17;;;;;;;20.92;10.55;;;;;;;11.91;87.41;101221.63;5051987;28;20388;-50
2022/06/20 03:02:47;;;;;;;18.55;10.60;;;;;;;11.92;87.36;101232.41;5052014;28;20037;-50
2022/06/20 03:05:12;;;;;;;19.45;10.02;;;;;;;11.87;87.60;101221.44;5052248;28;20055;-50
2022/06/20 03:07:40;;;;;;;19.00;9.65;;;;;;;11.81;87.33;101222.63;5052316;28;20044;-52
2022/06/20 03:10:32;;;;;;;20.10;10.07;;;;;;;11.81;87.90;101211.53;5051553;28;20025;-51
2022/06/20 03:12:57;;;;;;;19.92;10.27;;;;;;;11.89;87.05;101213.63;5051873;28;20029;-54
2022/06/20 03:15:23;;;;;;;21.58;10.05;;;;;;;11.90;87.15;101203.34;5051381;28;20029;-50
2022/06/20 03:17:51;;;;;;;16.45;9.48;;;;;;;11.84;86.64;101192.38;5051466;28;20119;-54
2022/06/20 03:20:19;;;;;;;20.35;9.27;;;;;;;11.85;87.69;101205.09;5051697;28;20047;-53
2022/06/20 03:22:51;;;;;;;19.90;10.10;;;;;;;11.87;87.62;101210.34;5051310;28;20061;-50
2022/06/20 03:25:18;;;;;;;20.65;9.85;;;;;;;11.86;87.16;101212.28;5051091;28;20148;-50
2022/06/20 03:27:44;;;;;;;18.52;9.50;;;;;;;11.85;86.64;101218.13;5051711;28;20021;-52
2022/06/20 03:30:34;;;;;;;19.58;9.65;;;;;;;11.94;86.46;101221.84;5050951;28;20103;-54
2022/06/20 03:33:03;;;;;;;18.67;9.50;;;;;;;11.86;85.78;101225.31;5051222;28;20067;-50
2022/06/20 03:35:30;;;;;;;19.85;10.10;;;;;;;11.93;86.51;101245.16;5051515;28;20126;-50
2022/06/20 03:37:58;;;;;;;18.02;9.93;;;;;;;11.94;86.71;101260.66;5052533;28;20020;-53
2022/06/20 03:40:24;;;;;;;19.42;9.70;;;;;;;11.96;86.26;101263.13;5055865;28;20021;-50
2022/06/20 03:42:50;;;;;;;19.88;10.13;;;;;;;11.97;86.17;101253.66;5055909;28;20074;-50
2022/06/20 03:45:16;;;;;;;18.83;9.60;;;;;;;11.98;86.30;101255.34;5055611;28;20021;-53
2022/06/20 03:48:05;;;;;;;17.98;9.50;;;;;;;12.05;85.84;101260.50;5055146;28;20052;-53
2022/06/20 03:50:38;;;;;;;15.90;9.00;;;;;;;12.09;86.41;101267.09;5044298;28;20044;-52
2022/06/20 03:53:18;;;;;;;19.85;9.70;;;;;;;12.10;86.11;101271.47;5055241;28;20036;-52
2022/06/20 03:55:51;;;;;;;16.02;9.25;;;;;;;12.16;85.99;101290.50;5055208;28;20067;-51
2022/06/20 03:58:28;;;;;;;20.42;10.10;;;;;;;12.20;85.85;101301.81;5055045;28;20025;-54
2022/06/20 04:00:59;;;;;;;18.13;9.82;;;;;;;12.23;86.12;101306.75;5055620;28;20028;-54
2022/06/20 04:03:52;;;;;;;17.65;9.90;;;;;;;12.31;86.40;101313.56;5055311;28;20103;-51
2022/06/20 04:06:29;;;;;;;19.13;9.57;;;;;;;12.40;85.68;101308.09;5055695;28;20167;-53
2022/06/20 04:11:55;;;;;;;20.63;10.00;;;;;;;12.32;85.41;101302.13;5055402;28;20067;-53
2022/06/20 04:14:25;;;;;;;22.15;10.48;;;;;;;12.32;85.39;101307.69;5055611;28;20045;-52
2022/06/20 04:16:58;;;;;;;21.80;10.60;;;;;;;12.29;86.19;101310.25;5054976;28;20024;-54
2022/06/20 04:19:32;;;;;;;19.70;10.10;;;;;;;12.35;85.97;101319.31;5054805;28;20448;-52
2022/06/20 04:22:09;;;;;;;20.35;9.68;;;;;;;12.41;86.30;101321.69;5054833;28;20040;-52
2022/06/20 04:25:00;;;;;;;21.30;10.70;;;;;;;12.48;86.16;101330.41;5055004;28;20124;-52
2022/06/20 04:27:33;;;;;;;20.42;10.05;;;;;;;12.47;86.28;101328.78;5054924;28;20295;-53
2022/06/20 04:30:05;;;;;;;20.60;10.20;;;;;;;12.53;86.89;101336.97;5055523;28;20036;-54
2022/06/20 04:32:37;;;;;;;19.15;10.60;;;;;;;12.62;86.91;101335.13;5054661;28;20032;-54
2022/06/20 04:35:16;;;;;;;19.98;10.15;;;;;;;12.63;86.69;101339.56;5055096;28;20112;-54
2022/06/20 04:38:04;;;;;;;22.20;10.93;;;;;;;12.61;87.09;101337.09;5054108;28;20033;-55
2022/06/20 04:40:41;;;;;;;21.13;10.15;;;;;;;12.63;87.11;101339.56;5053986;28;20049;-55
2022/06/20 04:43:19;;;;;;;20.95;10.68;;;;;;;12.71;86.99;101340.81;5053831;28;20041;-56
2022/06/20 04:45:50;;;;;;;18.45;9.73;;;;;;;12.70;87.33;101340.00;5054474;28;20033;-57
2022/06/20 04:48:18;;;;;;;18.17;10.30;;;;;;;12.64;87.34;101335.66;5054685;28;20079;-55
2022/06/20 04:50:53;;;;;;;22.30;10.75;;;;;;;12.73;87.78;101350.47;5053432;28;20486;-55
2022/06/20 04:53:28;;;;;;;22.85;10.80;;;;;;;12.70;87.18;101350.25;5054350;28;20048;-54
2022/06/20 04:55:59;;;;;;;18.20;10.05;;;;;;;12.69;87.31;101359.72;5054313;28;20032;-54
2022/06/20 04:58:35;;;;;;;22.95;11.05;;;;;;;12.74;87.38;101365.19;5053839;28;20074;-54
2022/06/20 05:01:02;;;;;;;19.27;10.20;;;;;;;12.82;87.27;101358.91;5053461;28;20131;-53
2022/06/20 05:03:31;;;;;;;20.90;10.77;;;;;;;12.76;87.10;101363.72;5054047;28;20476;-54
2022/06/20 05:05:59;;;;;;;19.60;10.45;;;;;;;12.83;86.89;101362.50;5054098;28;20028;-53
2022/06/20 05:08:40;;;;;;;19.58;9.90;;;;;;;12.84;86.78;101366.91;5054368;28;20097;-53
2022/06/20 05:11:24;;;;;;;21.90;9.73;;;;;;;12.89;86.59;101361.28;5053831;28;20099;-54
2022/06/20 05:14:04;;;;;;;18.67;9.20;;;;;;;13.00;86.54;101362.69;5054439;28;20033;-53
2022/06/20 05:16:35;;;;;;;19.65;9.77;;;;;;;13.07;85.39;101368.66;5054025;28;20090;-50
2022/06/20 05:19:08;;;;;;;19.35;9.52;;;;;;;13.17;85.15;101372.34;5054413;28;20503;-52
2022/06/20 05:21:39;;;;;;;19.83;9.60;;;;;;;13.23;83.93;101373.88;5054278;28;20448;-54
2022/06/20 05:24:14;;;;;;;20.58;9.30;;;;;;;13.27;83.84;101361.00;5054425;28;20028;-54
2022/06/20 05:26:43;;;;;;;16.92;9.68;;;;;;;13.29;84.43;101369.03;5053387;28;20114;-54
2022/06/20 05:29:15;;;;;;;18.55;9.90;;;;;;;13.33;83.67;101373.66;5053880;28;20044;-55
2022/06/20 05:31:44;;;;;;;18.35;10.32;;;;;;;13.34;83.72;101377.25;5053785;28;20472;-54
2022/06/20 05:34:10;;;;;;;19.08;9.98;;;;;;;13.42;84.23;101390.41;5054383;28;20025;-54
2022/06/20 05:36:52;;;;;;;19.60;9.33;;;;;;;13.45;84.03;101378.69;5053673;28;20384;-54
2022/06/20 05:39:20;;;;;;;22.00;9.98;;;;;;;13.44;84.52;101379.81;5053917;28;20275;-54
2022/06/20 05:41:47;;;;;;;21.70;9.82;;;;;;;13.45;84.59;101387.03;5053647;28;20139;-55
2022/06/20 05:44:12;;;;;;;22.10;10.07;;;;;;;13.50;84.67;101381.38;5053182;28;20544;-55
2022/06/20 05:46:56;;;;;;;20.20;9.93;;;;;;;13.60;84.98;101377.53;5053758;28;20033;-54
2022/06/20 05:49:28;;;;;;;21.30;9.50;;;;;;;13.68;84.57;101373.19;5053716;28;20032;-55
2022/06/20 05:51:55;;;;;;;22.25;9.85;;;;;;;13.70;84.62;101371.72;5053574;28;20064;-56
2022/06/20 05:54:25;;;;;;;19.83;10.60;;;;;;;13.66;85.33;101359.56;5052754;28;20025;-55
2022/06/20 05:56:55;;;;;;;19.25;9.75;;;;;;;13.76;85.20;101375.19;5053676;28;20071;-53
2022/06/20 05:59:26;;;;;;;20.10;9.93;;;;;;;13.73;85.39;101370.25;5053127;28;20028;-53
2022/06/20 06:01:55;;;;;;;19.85;10.30;;;;;;;13.80;85.42;101380.94;5051198;28;20033;-53
2022/06/20 06:04:33;;;;;;;22.35;10.27;;;;;;;13.95;84.39;101385.31;5051220;28;20111;-51
2022/06/20 06:07:10;;;;;;;22.45;10.60;;;;;;;14.00;83.34;101391.59;5052216;28;20471;-53
2022/06/20 06:09:50;;;;;;;21.58;10.43;;;;;;;13.99;83.18;101394.66;5052396;28;20025;-54
2022/06/20 06:12:23;;;;;;;18.15;10.07;;;;;;;13.96;82.34;101390.56;5052288;28;20021;-49
2022/06/20 06:14:58;;;;;;;20.17;10.63;;;;;;;14.05;83.25;101396.19;5052084;28;20111;-53
2022/06/20 06:17:35;;;;;;;19.65;10.00;;;;;;;14.18;82.24;101397.25;5050104;28;20032;-51
2022/06/20 06:20:04;;;;;;;20.65;10.00;;;;;;;14.26;82.05;101384.56;5051764;28;20021;-52
2022/06/20 06:22:35;;;;;;;20.10;10.15;;;;;;;14.25;82.72;101396.81;5052120;28;20136;-52
2022/06/20 06:25:33;;;;;;;18.85;10.07;;;;;;;14.13;81.14;101397.38;5051756;28;20112;-52
2022/06/20 06:28:11;;;;;;;20.90;11.13;;;;;;;14.10;81.90;101386.91;5052127;28;20151;-52
2022/06/20 06:30:42;;;;;;;19.80;10.20;;;;;;;14.15;81.80;101395.09;5050703;28;20448;-53
2022/06/20 06:33:29;;;;;;;19.08;9.95;;;;;;;14.23;82.05;101404.66;5050899;28;20029;-53
2022/06/20 06:36:02;;;;;;;20.48;10.43;;;;;;;14.24;81.55;101395.97;5052053;28;20044;-53
2022/06/20 06:38:40;;;;;;;22.25;11.40;;;;;;;14.30;81.13;101388.31;5052156;28;20143;-52
2022/06/20 06:41:14;;;;;;;19.40;10.50;;;;;;;14.21;79.78;101396.63;5051743;28;20090;-53
2022/06/20 06:43:44;;;;;;;20.45;10.93;;;;;;;14.17;79.92;101402.00;5052348;28;20025;-52
2022/06/20 06:46:21;;;;;;;19.13;10.10;;;;;;;14.14;77.83;101402.66;5051657;28;20037;-52
2022/06/20 06:49:14;;;;;;;18.50;9.75;;;;;;;14.16;78.42;101407.88;5051323;28;20522;-53
2022/06/20 06:51:52;;;;;;;18.60;10.57;;;;;;;14.22;78.38;101405.78;5051904;28;20037;-50
2022/06/20 06:54:23;;;;;;;19.23;10.43;;;;;;;14.30;77.97;101408.66;5051622;28;20028;-49
2022/06/20 06:57:04;;;;;;;20.67;10.30;;;;;;;14.45;77.22;101421.31;5051634;28;20036;-51
2022/06/20 06:59:40;;;;;;;17.42;9.85;;;;;;;14.41;75.80;101427.84;5051947;28;20132;-53
2022/06/20 07:02:12;;;;;;;20.55;10.63;;;;;;;14.35;76.12;101424.38;5051558;28;20085;-54
2022/06/20 07:04:56;;;;;;;19.20;10.30;;;;;;;14.35;76.57;101425.19;5051753;28;20021;-56
2022/06/20 07:07:43;;;;;;;17.35;9.65;;;;;;;14.48;76.95;101428.22;5051041;28;20029;-55
2022/06/20 07:10:18;;;;;;;19.33;9.55;;;;;;;14.56;75.01;101416.31;5050937;28;20108;-55
2022/06/20 07:12:49;;;;;;;18.38;9.48;;;;;;;14.69;73.25;101417.41;5051081;28;20108;-52
2022/06/20 07:15:17;;;;;;;18.75;9.77;;;;;;;14.88;72.79;101438.59;5045633;28;20131;-53
2022/06/20 07:17:50;;;;;;;18.55;10.15;;;;;;;15.03;72.60;101435.38;5039943;28;20390;-52
2022/06/20 07:20:17;;;;;;;18.20;9.63;;;;;;;15.21;72.61;101438.25;5029876;28;20025;-56
2022/06/20 07:22:44;;;;;;;18.63;9.10;;;;;;;15.24;68.25;101437.59;5029864;28;20037;-56
2022/06/20 07:25:17;;;;;;;18.08;9.23;;;;;;;15.31;70.22;101440.72;5028685;28;20595;-54
2022/06/20 07:27:51;;;;;;;20.08;9.82;;;;;;;15.53;70.13;101436.16;5029139;28;20025;-54
2022/06/20 07:30:21;;;;;;;19.88;9.90;;;;;;;15.70;68.61;101440.97;5028981;28;20455;-53
2022/06/20 07:32:56;;;;;;;20.48;10.00;;;;;;;15.68;67.24;101434.88;5028413;28;20132;-49
2022/06/20 07:35:27;;;;;;;18.65;9.80;;;;;;;15.64;68.53;101423.56;5028252;28;20435;-54
2022/06/20 07:37:59;;;;;;;18.55;9.70;;;;;;;15.77;64.58;101443.28;5030182;28;20036;-53
2022/06/20 07:40:31;;;;;;;17.42;9.20;;;;;;;15.90;64.26;101439.50;5029071;28;20025;-54
2022/06/20 07:43:10;;;;;;;17.35;9.27;;;;;;;16.06;63.37;101445.44;5030550;28;20052;-54
2022/06/20 07:45:42;;;;;;;18.02;9.68;;;;;;;16.08;63.19;101436.72;5030199;28;20108;-53
2022/06/20 07:48:20;;;;;;;17.85;9.20;;;;;;;16.37;62.25;101430.44;5030827;28;20109;-50
2022/06/20 07:50:57;;;;;;;19.25;9.85;;;;;;;16.33;64.69;101446.22;5029932;28;20038;-53
2022/06/20 07:53:33;;;;;;;18.70;9.90;;;;;;;16.30;64.63;101442.13;5029623;28;20025;-53
2022/06/20 07:56:09;;;;;;;20.70;9.80;;;;;;;16.03;64.26;101446.91;5027559;28;20025;-50
2022/06/20 07:58:39;;;;;;;17.98;9.57;;;;;;;15.63;65.09;101454.56;5029197;28;20047;-53
2022/06/20 08:01:16;;;;;;;15.95;9.52;;;;;;;15.45;65.68;101460.09;5029651;28;20083;-51
2022/06/20 08:03:49;;;;;;;18.63;10.02;;;;;;;15.60;66.03;101451.28;5030359;28;20026;-53
2022/06/20 08:06:22;;;;;;;17.13;9.60;;;;;;;15.87;63.82;101454.94;5030233;28;20025;-52
2022/06/20 08:08:52;;;;;;;16.70;9.02;;;;;;;16.01;59.36;101452.00;5030714;28;20022;-54
2022/06/20 08:11:41;;;;;;;19.17;9.00;;;;;;;16.34;59.84;101457.03;5030508;28;20055;-50
2022/06/20 08:14:10;;;;;;;16.73;8.73;;;;;;;16.73;60.52;101457.13;5030731;28;20033;-53
2022/06/20 08:16:37;;;;;;;17.35;9.00;;;;;;;16.98;56.30;101451.81;5030363;28;20037;-50
2022/06/20 08:19:03;;;;;;;17.20;9.40;;;;;;;17.04;56.40;101456.06;5030545;28;20018;-50
2022/06/20 08:21:37;;;;;;;17.52;8.82;;;;;;;16.81;55.63;101453.50;5030094;28;20354;-54
2022/06/20 08:24:10;;;;;;;16.40;8.98;;;;;;;16.73;57.59;101453.50;5030489;28;20107;-51
2022/06/20 08:26:50;;;;;;;16.58;8.77;;;;;;;16.93;58.38;101463.16;5033840;28;20072;-53
2022/06/20 08:29:35;;;;;;;17.92;9.43;;;;;;;17.02;57.61;101463.13;5034192;28;20033;-52
2022/06/20 08:32:27;;;;;;;17.42;9.10;;;;;;;17.09;58.72;101453.06;5034207;28;20026;-57
2022/06/20 08:35:11;;;;;;;17.33;9.30;;;;;;;17.09;56.49;101461.47;5034325;28;20127;-54
2022/06/20 08:37:50;;;;;;;15.25;9.40;;;;;;;17.35;56.56;101468.88;5034080;28;20021;-53
2022/06/20 08:40:23;;;;;;;17.77;9.00;;;;;;;17.48;56.53;101471.78;5034293;28;20033;-55
2022/06/20 08:42:58;;;;;;;19.30;9.38;;;;;;;17.50;56.06;101475.88;5034000;28;20064;-54
2022/06/20 08:45:42;;;;;;;17.23;9.05;;;;;;;17.61;54.94;101471.53;5033973;28;20029;-53
2022/06/20 08:48:46;;;;;;;18.90;9.10;;;;;;;17.90;55.46;101480.25;5033849;28;20030;-53
2022/06/20 08:51:39;;;;;;;16.33;8.60;;;;;;;17.57;54.25;101478.16;5020401;28;20037;-51
2022/06/20 08:54:28;;;;;;;17.13;8.75;;;;;;;17.21;53.10;101485.91;5034120;28;20029;-53
2022/06/20 08:57:01;;;;;;;19.67;9.50;;;;;;;17.16;54.93;101488.91;5033934;28;20026;-53
2022/06/20 09:00:20;;;;;;;16.90;9.10;;;;;;;17.32;54.03;101494.75;5034039;28;20128;-53
2022/06/20 09:03:13;;;;;;;17.42;8.98;;;;;;;17.00;54.25;101503.41;4972307;28;20472;-54
2022/06/20 09:05:44;;;;;;;16.58;9.32;;;;;;;16.93;54.71;101497.53;5032215;28;20120;-51
2022/06/20 09:08:45;;;;;;;16.17;9.10;;;;;;;17.10;54.15;101498.59;5033613;28;20029;-54
2022/06/20 09:11:29;;;;;;;16.88;9.30;;;;;;;17.48;53.92;101491.38;5033255;28;20060;-54
2022/06/20 09:14:27;;;;;;;14.88;9.27;;;;;;;17.52;52.21;101500.75;5033440;28;20036;-54
2022/06/20 09:17:18;;;;;;;16.60;8.38;;;;;;;17.39;51.04;101509.03;5033255;28;20032;-54
2022/06/20 09:20:04;;;;;;;18.25;9.98;;;;;;;16.98;52.22;101511.34;5033561;28;20029;-54
2022/06/20 09:22:56;;;;;;;18.80;9.38;;;;;;;16.99;52.65;101509.34;5033398;28;20087;-55
2022/06/20 09:25:39;;;;;;;16.98;9.00;;;;;;;17.21;52.75;101507.47;5032864;28;20161;-54
2022/06/20 09:28:37;;;;;;;16.65;9.63;;;;;;;17.46;51.36;101508.50;5033074;28;20380;-55
2022/06/20 09:31:33;;;;;;;16.17;9.15;;;;;;;17.70;49.12;101512.63;5031593;28;20025;-53
2022/06/20 09:34:35;;;;;;;15.75;8.90;;;;;;;18.03;50.92;101512.75;5033156;28;20159;-54
2022/06/20 09:37:36;;;;;;;17.83;9.63;;;;;;;18.46;50.18;101504.34;5032747;28;20112;-54
2022/06/20 09:40:09;;;;;;;20.33;10.55;;;;;;;18.49;49.35;101506.44;5033191;28;20060;-53
2022/06/20 09:43:02;;;;;;;17.77;10.10;;;;;;;18.11;50.80;101522.25;5032744;28;20036;-53
2022/06/20 09:45:51;;;;;;;22.80;9.85;;;;;;;17.96;51.47;101508.81;5032777;28;20642;-54
2022/06/20 09:48:27;;;;;;;19.23;9.55;;;;;;;18.00;49.63;101519.03;5032850;28;20306;-54
2022/06/20 09:51:12;;;;;;;17.50;9.68;;;;;;;18.05;50.22;101515.22;5032917;28;20060;-53
2022/06/20 09:54:19;;;;;;;16.58;9.23;;;;;;;18.27;49.49;101502.03;5032875;28;20025;-53
2022/06/20 09:57:15;;;;;;;16.30;9.07;;;;;;;18.46;48.57;101521.94;5009556;28;20065;-53
2022/06/20 09:59:58;;;;;;;17.70;9.07;;;;;;;18.65;48.29;101503.81;5031318;28;20029;-54
2022/06/20 10:02:37;;;;;;;17.55;9.00;;;;;;;18.71;48.69;101513.63;5032573;28;20029;-54
2022/06/20 10:05:21;;;;;;;17.77;8.80;;;;;;;18.79;49.07;101489.47;5032138;28;20037;-54
2022/06/20 10:07:51;;;;;;;18.20;9.35;;;;;;;18.96;48.92;101505.31;5032228;28;20037;-53
2022/06/20 10:10:30;;;;;;;21.17;9.15;;;;;;;18.58;48.36;101504.34;5032258;28;20441;-52
2022/06/20 10:13:07;;;;;;;17.67;8.95;;;;;;;18.49;47.90;101498.84;5032082;28;20531;-54
2022/06/20 10:16:16;;;;;;;18.17;8.50;;;;;;;18.83;48.34;101501.66;5031928;28;20026;-51
2022/06/20 10:19:03;;;;;;;18.77;9.13;;;;;;;19.05;46.80;101519.22;5032346;28;20108;-54
2022/06/20 10:21:50;;;;;;;17.98;9.40;;;;;;;19.21;47.10;101514.59;5032176;28;20064;-54
2022/06/20 10:25:03;;;;;;;17.98;8.55;;;;;;;19.40;46.27;101518.81;5032180;28;20105;-54
2022/06/20 10:27:43;;;;;;;19.73;9.07;;;;;;;19.22;46.79;101518.19;5017308;28;20408;-54
2022/06/20 10:30:34;;;;;;;18.27;9.73;;;;;;;19.30;46.32;101525.69;5031780;28;20029;-54
2022/06/20 10:33:21;;;;;;;20.08;9.63;;;;;;;19.39;46.27;101517.97;5031860;28;20022;-55
2022/06/20 10:35:55;;;;;;;18.50;9.45;;;;;;;19.51;46.21;101531.16;5031965;28;20387;-54
2022/06/20 10:38:32;;;;;;;18.73;8.95;;;;;;;19.49;45.26;101533.53;5031854;28;20030;-52
2022/06/20 10:41:16;;;;;;;19.33;9.30;;;;;;;19.50;44.97;101537.97;5031584;28;20025;-54
2022/06/20 10:43:56;;;;;;;18.85;9.05;;;;;;;19.38;44.90;101532.34;5031467;28;20021;-54
2022/06/20 10:46:26;;;;;;;19.52;9.00;;;;;;;19.37;45.55;101539.13;5031417;28;20036;-54
2022/06/20 10:49:03;;;;;;;18.50;9.40;;;;;;;19.53;44.62;101544.88;5030865;28;20104;-55
2022/06/20 10:51:40;;;;;;;18.10;9.50;;;;;;;19.62;44.33;101542.75;5031571;28;20026;-53
2022/06/20 10:54:29;;;;;;;18.15;8.90;;;;;;;19.66;44.76;101542.88;5031482;28;20030;-51
2022/06/20 10:57:22;;;;;;;19.17;9.25;;;;;;;20.07;44.33;101536.16;5031235;28;20079;-53
2022/06/20 11:00:10;;;;;;;15.87;8.80;;;;;;;20.16;45.05;101544.47;5031432;28;20018;-53
2022/06/20 11:02:53;;;;;;;18.35;9.30;;;;;;;20.12;45.03;101542.72;5030959;28;20061;-55
2022/06/20 11:05:36;;;;;;;18.52;9.70;;;;;;;20.00;44.78;101541.56;5031179;28;20083;-53
2022/06/20 11:08:26;;;;;;;21.23;9.38;;;;;;;20.15;44.63;101547.63;5031228;28;20084;-54
2022/06/20 11:11:28;;;;;;;18.60;9.40;;;;;;;19.94;45.71;101557.84;5031460;28;20065;-53
2022/06/20 11:14:14;;;;;;;18.85;9.20;;;;;;;19.76;44.87;101548.81;5030765;28;20167;-55
2022/06/20 11:16:57;;;;;;;18.50;9.32;;;;;;;20.15;45.46;101547.63;5031041;28;20040;-54
2022/06/20 11:19:59;;;;;;;18.23;9.43;;;;;;;20.39;43.91;101552.34;5031018;28;20079;-52
2022/06/20 11:22:38;;;;;;;17.55;9.35;;;;;;;20.51;42.54;101555.13;5031117;28;20030;-54
2022/06/20 11:25:20;;;;;;;17.50;9.35;;;;;;;20.70;42.80;101546.00;5030932;28;20029;-54
2022/06/20 11:28:06;;;;;;;17.85;9.10;;;;;;;20.61;42.89;101558.59;5031437;28;20030;-53
2022/06/20 11:30:50;;;;;;;19.92;9.25;;;;;;;20.27;43.51;101548.38;5029545;28;20387;-54
2022/06/20 11:36:17;;;;;;;16.35;8.90;;;;;;;20.10;43.10;101551.47;5031021;28;19920;-54
2022/06/20 11:39:10;;;;;;;18.02;8.85;;;;;;;20.54;42.21;101545.97;5030843;28;20131;-54
2022/06/20 11:41:48;;;;;;;20.05;8.90;;;;;;;20.87;41.91;101544.91;5030904;28;20033;-54
2022/06/20 11:44:22;;;;;;;18.17;8.82;;;;;;;20.94;41.55;101549.06;5030680;28;20041;-55
2022/06/20 11:47:14;;;;;;;19.23;9.05;;;;;;;20.86;41.76;101542.44;5030731;28;20125;-54
2022/06/20 11:50:16;;;;;;;18.70;8.98;;;;;;;20.88;41.43;101542.88;5030796;28;20083;-54
2022/06/20 11:52:53;;;;;;;19.70;9.27;;;;;;;20.74;40.72;101540.50;5030956;28;20121;-54
2022/06/20 11:55:28;;;;;;;17.25;8.88;;;;;;;20.63;40.86;101543.00;5030973;28;20021;-54
2022/06/20 11:58:18;;;;;;;17.40;9.48;;;;;;;20.41;43.13;101550.00;5031084;28;20030;-54
2022/06/20 12:00:53;;;;;;;22.27;9.27;;;;;;;20.03;44.23;101545.66;5035302;28;20487;-52
2022/06/20 12:03:44;;;;;;;18.80;9.15;;;;;;;19.82;44.14;101554.22;5035026;28;20070;-54